»·PEaware :: DCM720 KRNT-KOTH

DCM720 :: KRNT-KOTH

FLIGHT INFORMATION

Flight Status: Arrived
Operator: Unknown
More flights by this operator :: More flights under this callsign
Pilot: Shawn N. (11060)
Aircraft: BOEING 737-800
(B738)
More flights by this aircraft type
Origin: KRNT Renton Mun
United States
Destination: KOTH North Bend Mun
United States
More flights between these airports :: More routes between these airports
Route: OLM V187 AST V27 OTH
File this flight plan on PilotEdge
Remarks:
Altitude:
(Current/Filed)
28,000ft
Speed:
(Current/Filed)
460kts
Departed: 06-Aug-18 10:01 PM
Arrived: 06-Aug-18 11:07 PM
Distance/Time
Traveled:
259nm/1:06
Distance/Time
To Go:
Arrived

Flight Plot

Page will automatically refresh every two minutes.

Flight plan parsing failed; only flown route is shown


Map Options




Map Legend


Flown Route
Filed Route
Departure Airport
Arrival Airport
Navaid (VOR, NDB)
Fix

Horizontal Profiles

Position Reports

Time Latitude Longitude Heading Altitude Ground
Speed
06-Aug-18 21:53 47.497398 -122.218001 175 27ft 0kts
06-Aug-18 21:54 47.497398 -122.218001 175 27ft 0kts
06-Aug-18 21:55 47.497398 -122.218001 175 27ft 0kts
06-Aug-18 21:56 47.497398 -122.218001 175 27ft 0kts
06-Aug-18 21:57 47.497398 -122.218001 175 27ft 0kts
06-Aug-18 21:58 47.497398 -122.218001 175 27ft 0kts
06-Aug-18 21:59 47.497364 -122.218013 199 27ft 0kts
06-Aug-18 22:00 47.492557 -122.216908 173 31ft 32kts
06-Aug-18 22:01 47.485883 -122.215195 91 34ft 15kts
06-Aug-18 22:02 47.514881 -122.218819 350 1111ft 172kts
06-Aug-18 22:03 47.507637 -122.272856 192 3147ft 246kts
06-Aug-18 22:04 47.435179 -122.289302 202 6837ft 271kts
06-Aug-18 22:05 47.375172 -122.360426 210 9960ft 303kts
06-Aug-18 22:06 47.293469 -122.403117 200 13297ft 324kts
06-Aug-18 22:07 47.205882 -122.445961 200 16548ft 344kts
06-Aug-18 22:08 47.118073 -122.488740 201 19417ft 361kts
06-Aug-18 22:09 47.021200 -122.535748 202 22179ft 376kts
06-Aug-18 22:10 46.923695 -122.582912 202 24581ft 390kts
06-Aug-18 22:11 46.822577 -122.631670 202 26742ft 404kts
06-Aug-18 22:12 46.716134 -122.682782 201 28140ft 419kts
06-Aug-18 22:13 46.601460 -122.737671 201 28142ft 449kts
06-Aug-18 22:14 46.482124 -122.794436 201 28138ft 454kts
06-Aug-18 22:15 46.362908 -122.850831 201 28147ft 454kts
06-Aug-18 22:16 46.243250 -122.907178 201 28147ft 454kts
06-Aug-18 22:17 46.123759 -122.963188 201 28146ft 453kts
06-Aug-18 22:18 46.004271 -123.018947 201 28146ft 453kts
06-Aug-18 22:19 45.889940 -123.072065 201 28091ft 452kts
06-Aug-18 22:20 45.774304 -123.125556 201 28090ft 453kts
06-Aug-18 22:21 45.654940 -123.180531 201 28090ft 452kts
06-Aug-18 22:22 45.535618 -123.235243 201 28090ft 452kts
06-Aug-18 22:23 45.416395 -123.289673 201 28099ft 449kts
06-Aug-18 22:24 45.297553 -123.343690 201 28098ft 450kts
06-Aug-18 22:25 45.178982 -123.397358 200 28098ft 448kts
06-Aug-18 22:26 45.060365 -123.450805 200 28098ft 449kts
06-Aug-18 22:27 44.941423 -123.504164 200 28097ft 449kts
06-Aug-18 22:28 44.826468 -123.555492 200 28087ft 434kts
06-Aug-18 22:29 44.716019 -123.604563 200 28107ft 414kts
06-Aug-18 22:30 44.607150 -123.652817 199 27968ft 414kts
06-Aug-18 22:31 44.500948 -123.699614 199 25592ft 394kts
06-Aug-18 22:32 44.401729 -123.743244 199 24208ft 393kts
06-Aug-18 22:33 44.296123 -123.789514 199 21833ft 402kts
06-Aug-18 22:34 44.195443 -123.833357 198 18644ft 360kts
06-Aug-18 22:35 44.101525 -123.874169 198 16739ft 349kts
06-Aug-18 22:36 44.011774 -123.912025 197 14755ft 339kts
06-Aug-18 22:37 43.924420 -123.949933 197 12821ft 323kts
06-Aug-18 22:38 43.841660 -123.985758 197 11479ft 306kts
06-Aug-18 22:39 43.764628 -124.019016 196 10593ft 277kts
06-Aug-18 22:40 43.692453 -124.050081 196 9726ft 274kts
06-Aug-18 22:41 43.620913 -124.080777 197 8647ft 265kts
06-Aug-18 22:42 43.551301 -124.110570 197 7579ft 260kts
06-Aug-18 22:43 43.483185 -124.139661 198 6571ft 255kts
06-Aug-18 22:44 43.419908 -124.178706 232 5622ft 255kts
06-Aug-18 22:45 43.393532 -124.271133 233 5615ft 263kts
06-Aug-18 22:46 43.334554 -124.334529 198 3333ft 288kts
06-Aug-18 22:47 43.263238 -124.362666 197 2257ft 247kts
06-Aug-18 22:48 43.205563 -124.370431 226 2279ft 219kts
06-Aug-18 22:49 43.221063 -124.417798 21 1587ft 235kts
06-Aug-18 22:50 43.278929 -124.392907 24 1990ft 231kts
06-Aug-18 22:51 43.343976 -124.349703 24 1385ft 202kts
06-Aug-18 22:52 43.396380 -124.338741 0 1025ft 200kts
06-Aug-18 22:53 43.414529 -124.293338 137 875ft 146kts
06-Aug-18 22:54 43.405550 -124.258788 54 1125ft 159kts
06-Aug-18 22:55 43.428759 -124.214674 64 3294ft 160kts
06-Aug-18 22:56 43.410662 -124.155481 163 2758ft 182kts
06-Aug-18 22:57 43.374557 -124.192252 244 3003ft 182kts
06-Aug-18 22:58 43.351662 -124.254452 245 3000ft 183kts
06-Aug-18 22:59 43.328622 -124.317017 245 2999ft 183kts
06-Aug-18 23:00 43.305939 -124.378583 245 2999ft 183kts
06-Aug-18 23:01 43.282920 -124.441057 245 2999ft 183kts
06-Aug-18 23:02 43.272227 -124.506828 312 3023ft 216kts
06-Aug-18 23:03 43.324371 -124.488288 58 2999ft 230kts
06-Aug-18 23:04 43.354765 -124.411182 61 2922ft 217kts
06-Aug-18 23:05 43.381663 -124.341194 59 879ft 185kts
06-Aug-18 23:06 43.401991 -124.291567 58 543ft 127kts
06-Aug-18 23:07 43.418629 -124.251127 59 23ft 74kts
06-Aug-18 23:08 43.418156 -124.246348 158 23ft 7kts
06-Aug-18 23:09 43.416868 -124.246707 149 27ft 0kts
06-Aug-18 23:10 43.416868 -124.246707 149 27ft 0kts
06-Aug-18 23:11 43.416868 -124.246707 149 27ft 0kts

Navigation Log

Ident Type
Flight plan parsing failed, navigation log unavailable